Huvudsida
METAR-TAF:

METAR-TAF

Flygplatser :

Såtenäs, Sverige

Skaraborgs flygflottilj

latitud: 58-26N, longitud: 012-42E, höjd: 54 m

Aktuellt väderrapport

Denna rapport gjordes för 37 minuter sedan, klockan 17:50 UTC
Vind 3 kt från nordväst, varierande mellan väst och ost/nordost
Temperatur 11°C
Fuktighet 58%
Tryck 1012 hPa
Sikt 10 km eller mer

METAR: ESIB 221750Z AUTO 32003KT 260V070 9999 NCD 11/03 Q1012

Tid: 20:27 (18:27 UTC)


TAF: saknas

Aktuella väderrapporter och prognoser från 4000 flygplatser (METAR- och TAF-rapporter).

De tillgängliga stationerna syns som gula och röda prickar på kartan.

För musen över prickarna för att se namnen på stationerna.

Klicka sedan för att få väderrapporter och prognoser.

För att ändra kartan: Klicka på de gröna knapparna med ett svart kors på för att zooma in; den gröna knappen med ett streck på för att zooma ut; eller på de gröna pilarna för angränsande kartor.


METAR-TAF: